createdAt,value
2022-11-16T00:01:09.354Z,3.53
2022-11-16T00:03:36.797Z,3.20
2022-11-16T00:06:05.336Z,3.47
2022-11-16T00:08:34.256Z,3.10
2022-11-16T00:11:05.009Z,3.53
2022-11-16T00:13:32.746Z,3.72
2022-11-16T00:16:00.063Z,3.97
2022-11-16T00:18:28.847Z,4.18
2022-11-16T00:20:56.204Z,4.15
2022-11-16T00:23:24.132Z,3.88
2022-11-16T00:28:18.712Z,3.58
2022-11-16T00:30:47.313Z,3.40
2022-11-16T00:33:15.837Z,4.00
2022-11-16T00:35:44.494Z,4.40
2022-11-16T00:38:11.828Z,3.60
2022-11-16T00:40:39.184Z,4.57
2022-11-16T00:43:07.042Z,4.88
2022-11-16T00:45:34.388Z,4.55
2022-11-16T00:48:01.701Z,5.20
2022-11-16T00:50:29.330Z,4.22
2022-11-16T00:52:58.079Z,4.40
2022-11-16T00:55:25.747Z,4.78
2022-11-16T00:57:53.175Z,5.68
2022-11-16T01:00:22.896Z,4.85
2022-11-16T01:02:52.407Z,6.28
2022-11-16T01:05:19.791Z,5.72
2022-11-16T01:07:47.448Z,5.22
2022-11-16T01:10:17.238Z,5.30
2022-11-16T01:12:44.722Z,5.10
2022-11-16T01:15:12.158Z,6.25
2022-11-16T01:17:40.067Z,6.40
2022-11-16T01:22:36.333Z,5.45
2022-11-16T01:25:04.038Z,5.82
2022-11-16T01:27:32.890Z,5.53
2022-11-16T01:30:02.336Z,6.07
2022-11-16T01:32:30.159Z,6.18
2022-11-16T01:34:57.645Z,6.88
2022-11-16T01:37:29.872Z,6.57
2022-11-16T01:39:57.257Z,6.18
2022-11-16T01:42:26.016Z,6.95
2022-11-16T01:45:00.118Z,7.05
2022-11-16T01:47:27.652Z,6.47
2022-11-16T01:49:59.399Z,6.03
2022-11-16T01:52:31.839Z,7.25
2022-11-16T01:55:00.091Z,7.00
2022-11-16T01:57:33.611Z,7.10
2022-11-16T02:00:09.375Z,6.63
2022-11-16T02:02:49.427Z,6.82
2022-11-16T02:05:34.383Z,7.28
2022-11-16T02:08:33.103Z,7.47
2022-11-16T02:11:07.647Z,7.20
2022-11-16T02:13:38.548Z,7.93
2022-11-16T02:16:12.819Z,7.20
2022-11-16T02:18:45.380Z,7.93
2022-11-16T02:21:20.466Z,7.60
2022-11-16T02:24:00.474Z,7.90
2022-11-16T02:26:46.664Z,7.47
2022-11-16T02:29:20.271Z,8.30
2022-11-16T02:31:50.518Z,8.68
2022-11-16T02:34:18.812Z,8.20
2022-11-16T02:36:49.368Z,8.77
2022-11-16T02:39:18.586Z,8.30
2022-11-16T02:41:47.943Z,9.68
2022-11-16T02:44:18.727Z,9.50
2022-11-16T02:46:49.486Z,9.20
2022-11-16T02:49:18.539Z,9.40
2022-11-16T02:51:47.048Z,8.82
2022-11-16T02:54:16.343Z,9.63
2022-11-16T02:56:51.531Z,8.77
2022-11-16T02:59:23.378Z,9.98
2022-11-16T03:04:21.636Z,8.95
2022-11-16T03:06:49.566Z,8.80
2022-11-16T03:12:00.493Z,8.50
2022-11-16T03:14:32.870Z,7.80
2022-11-16T03:17:01.491Z,8.25
2022-11-16T03:19:38.266Z,8.45
2022-11-16T03:22:08.153Z,8.35
2022-11-16T03:24:38.619Z,7.78
2022-11-16T03:27:07.756Z,7.32
2022-11-16T03:29:40.602Z,7.95
2022-11-16T03:32:13.900Z,8.13
2022-11-16T03:34:46.492Z,9.40
2022-11-16T03:37:14.175Z,8.30
2022-11-16T03:39:42.419Z,6.57
2022-11-16T03:42:13.843Z,7.20
2022-11-16T03:44:42.591Z,6.85
2022-11-16T03:49:37.166Z,6.45
2022-11-16T03:52:06.414Z,6.22
2022-11-16T03:54:34.428Z,6.05
2022-11-16T03:57:02.148Z,6.57
2022-11-16T03:59:29.509Z,6.80
2022-11-16T04:04:43.089Z,6.68
2022-11-16T04:07:29.385Z,7.00
2022-11-16T04:10:14.734Z,6.20
2022-11-16T04:13:02.259Z,11.15
2022-11-16T04:15:47.257Z,11.80
2022-11-16T04:18:31.898Z,6.68
2022-11-16T04:21:17.290Z,7.00
2022-11-16T04:24:04.556Z,7.53
2022-11-16T04:26:46.090Z,7.05
2022-11-16T04:29:14.029Z,6.35
2022-11-16T04:31:59.452Z,5.07
2022-11-16T04:34:45.602Z,5.57
2022-11-16T04:37:33.119Z,5.22
2022-11-16T04:40:01.835Z,5.55
2022-11-16T04:42:28.459Z,5.82
2022-11-16T04:45:13.583Z,5.00
2022-11-16T04:47:49.230Z,4.70
2022-11-16T04:50:17.120Z,3.42
2022-11-16T04:52:45.002Z,3.90
2022-11-16T04:55:15.318Z,5.32
2022-11-16T04:57:45.777Z,2.90
2022-11-16T05:00:14.353Z,3.10
2022-11-16T05:02:41.883Z,2.92
2022-11-16T05:05:09.796Z,2.33
2022-11-16T05:07:39.645Z,2.53
2022-11-16T05:10:13.371Z,1.98
2022-11-16T05:12:42.479Z,2.60
2022-11-16T05:15:11.216Z,3.42
2022-11-16T05:17:39.609Z,3.00
2022-11-16T05:20:29.953Z,11.63
2022-11-16T05:23:02.666Z,6.40
2022-11-16T05:25:36.405Z,8.90
2022-11-16T05:28:08.051Z,4.00
2022-11-16T05:30:39.810Z,9.73
2022-11-16T05:33:07.254Z,5.13
2022-11-16T05:35:38.739Z,3.53
2022-11-16T05:38:06.982Z,4.03
2022-11-16T05:40:39.531Z,3.53
2022-11-16T05:43:08.291Z,4.30
2022-11-16T05:45:41.532Z,3.85
2022-11-16T05:48:09.522Z,4.70
2022-11-16T05:50:42.351Z,4.30
2022-11-16T05:53:20.442Z,4.30
2022-11-16T05:55:49.135Z,4.10
2022-11-16T05:58:19.522Z,4.10
2022-11-16T06:00:48.447Z,4.10
2022-11-16T06:03:17.685Z,4.68
2022-11-16T06:05:45.177Z,6.05
2022-11-16T06:08:14.882Z,5.07
2022-11-16T06:10:42.662Z,3.78
2022-11-16T06:13:10.363Z,4.55
2022-11-16T06:15:40.444Z,3.47
2022-11-16T06:18:09.608Z,3.22
2022-11-16T06:20:38.536Z,3.22
2022-11-16T06:23:06.165Z,3.40
2022-11-16T06:28:06.593Z,3.90
2022-11-16T06:30:35.559Z,5.03
2022-11-16T06:33:05.455Z,7.25
2022-11-16T06:35:33.355Z,6.47
2022-11-16T06:38:01.083Z,5.40
2022-11-16T06:40:29.336Z,4.57
2022-11-16T06:42:58.002Z,6.03
2022-11-16T06:45:25.475Z,5.78
2022-11-16T06:47:55.917Z,3.95
2022-11-16T06:50:25.570Z,3.58
2022-11-16T06:52:53.875Z,3.25
2022-11-16T06:55:21.393Z,4.20
2022-11-16T06:57:49.069Z,5.00
2022-11-16T07:00:18.197Z,3.85
2022-11-16T07:02:46.586Z,4.20
2022-11-16T07:05:16.891Z,3.75
2022-11-16T07:07:46.916Z,2.75
2022-11-16T07:10:14.733Z,2.92
2022-11-16T07:12:43.058Z,5.68
2022-11-16T07:15:11.475Z,9.68
2022-11-16T07:17:41.204Z,9.23
2022-11-16T07:20:09.340Z,7.70
2022-11-16T07:22:37.432Z,5.57
2022-11-16T07:25:06.960Z,4.65
2022-11-16T07:27:34.684Z,3.75
2022-11-16T07:30:02.411Z,4.15
2022-11-16T07:32:40.364Z,3.70
2022-11-16T07:35:32.195Z,3.22
2022-11-16T07:37:59.593Z,3.40
2022-11-16T07:40:28.365Z,3.83
2022-11-16T07:42:58.368Z,3.35
2022-11-16T07:45:25.690Z,3.42
2022-11-16T07:47:58.175Z,3.88
2022-11-16T07:53:12.975Z,4.10
2022-11-16T07:55:42.056Z,4.82
2022-11-16T07:58:10.151Z,4.25
2022-11-16T08:00:38.323Z,4.40
2022-11-16T08:03:14.026Z,4.13
2022-11-16T08:05:41.441Z,4.38
2022-11-16T08:08:08.960Z,4.47
2022-11-16T08:10:37.957Z,3.60
2022-11-16T08:13:06.892Z,4.20
2022-11-16T08:15:34.783Z,3.38
2022-11-16T08:18:05.500Z,4.85
2022-11-16T08:20:34.784Z,3.85
2022-11-16T08:23:02.191Z,2.97
2022-11-16T08:25:33.183Z,3.45
2022-11-16T08:28:00.570Z,3.88
2022-11-16T08:32:57.382Z,2.42
2022-11-16T08:35:26.233Z,2.65
2022-11-16T08:37:53.705Z,3.00
2022-11-16T08:40:21.135Z,2.88
2022-11-16T08:42:48.986Z,3.20
2022-11-16T08:45:17.671Z,2.92
2022-11-16T08:47:45.666Z,2.90
2022-11-16T08:50:14.384Z,2.58
2022-11-16T08:52:41.816Z,2.35
2022-11-16T08:55:13.744Z,2.80
2022-11-16T08:57:41.135Z,2.40
2022-11-16T09:00:12.271Z,4.05
2022-11-16T09:02:39.595Z,2.88
2022-11-16T09:05:07.958Z,2.97
2022-11-16T09:07:36.684Z,3.40
2022-11-16T09:10:04.345Z,3.05
2022-11-16T09:12:31.701Z,2.75
2022-11-16T09:14:59.114Z,3.28
2022-11-16T09:17:26.466Z,2.67
2022-11-16T09:19:53.791Z,2.80
2022-11-16T09:22:21.159Z,3.78
2022-11-16T09:24:49.867Z,2.95
2022-11-16T09:27:17.374Z,2.70
2022-11-16T09:29:44.811Z,2.67
2022-11-16T09:32:12.205Z,3.42
2022-11-16T09:34:39.539Z,2.97
2022-11-16T09:37:07.943Z,2.60
2022-11-16T09:39:35.710Z,2.38
2022-11-16T09:42:11.019Z,2.92
2022-11-16T09:44:48.659Z,3.22
2022-11-16T09:47:18.541Z,2.10
2022-11-16T09:49:48.382Z,3.25
2022-11-16T09:52:21.467Z,2.90
2022-11-16T09:54:49.943Z,3.30
2022-11-16T09:57:21.429Z,2.42
2022-11-16T09:59:49.847Z,2.33
2022-11-16T10:02:19.586Z,2.90
2022-11-16T10:04:56.680Z,2.88
2022-11-16T10:07:26.961Z,2.05
2022-11-16T10:09:56.507Z,3.10
2022-11-16T10:12:27.683Z,1.88
2022-11-16T10:15:04.839Z,2.25
2022-11-16T10:17:38.484Z,1.88
2022-11-16T10:20:17.716Z,1.95
2022-11-16T10:22:50.662Z,2.33
2022-11-16T10:25:21.322Z,2.38
2022-11-16T10:28:11.548Z,1.80
2022-11-16T10:30:41.124Z,2.22
2022-11-16T10:33:11.647Z,1.83
2022-11-16T10:35:40.455Z,1.55
2022-11-16T10:38:11.900Z,1.75
2022-11-16T10:40:40.554Z,2.35
2022-11-16T10:43:13.491Z,1.73
2022-11-16T10:45:43.987Z,1.85
2022-11-16T10:48:15.467Z,1.67
2022-11-16T10:50:44.931Z,1.58
2022-11-16T10:53:13.510Z,1.83
2022-11-16T10:55:40.950Z,1.92
2022-11-16T10:58:08.253Z,1.88
2022-11-16T11:00:41.921Z,1.38
2022-11-16T11:03:10.700Z,1.60
2022-11-16T11:05:38.959Z,1.52
2022-11-16T11:08:08.192Z,2.22
2022-11-16T11:10:36.489Z,1.58
2022-11-16T11:13:05.074Z,1.52
2022-11-16T11:15:32.522Z,1.33
2022-11-16T11:18:17.112Z,1.58
2022-11-16T11:20:45.865Z,1.25
2022-11-16T11:23:14.806Z,1.67
2022-11-16T11:25:49.142Z,1.40
2022-11-16T11:28:18.573Z,1.40
2022-11-16T11:30:52.981Z,1.60
2022-11-16T11:33:23.632Z,1.58
2022-11-16T11:35:58.066Z,1.58
2022-11-16T11:38:26.263Z,1.77
2022-11-16T11:40:58.653Z,1.33
2022-11-16T11:43:26.438Z,3.15
2022-11-16T11:45:56.172Z,2.15
2022-11-16T11:48:31.071Z,1.98
2022-11-16T11:50:59.733Z,1.30
2022-11-16T11:53:36.901Z,1.42
2022-11-16T11:56:04.603Z,1.42
2022-11-16T11:58:33.230Z,1.73
2022-11-16T12:01:07.313Z,1.95
2022-11-16T12:04:01.552Z,2.58
2022-11-16T12:06:33.837Z,1.77
2022-11-16T12:09:08.799Z,1.67
2022-11-16T12:11:42.689Z,1.35
2022-11-16T12:14:15.824Z,1.70
2022-11-16T12:16:46.358Z,1.58
2022-11-16T12:19:30.472Z,1.20
2022-11-16T12:22:04.046Z,2.22
2022-11-16T12:24:37.894Z,2.22
2022-11-16T12:27:10.320Z,1.63
2022-11-16T12:29:44.700Z,1.52
2022-11-16T12:32:30.063Z,1.77
2022-11-16T12:35:03.946Z,2.50
2022-11-16T12:37:36.152Z,1.83
2022-11-16T12:40:15.538Z,1.67
2022-11-16T12:42:44.591Z,1.65
2022-11-16T12:45:18.966Z,1.70
2022-11-16T12:47:52.802Z,2.00
2022-11-16T12:50:27.526Z,1.52
2022-11-16T12:53:06.300Z,2.17
2022-11-16T12:55:38.846Z,2.30
2022-11-16T12:58:13.145Z,1.65
2022-11-16T13:00:49.811Z,1.55
2022-11-16T13:03:19.910Z,1.42
2022-11-16T13:05:53.844Z,1.67
2022-11-16T13:08:29.403Z,1.95
2022-11-16T13:11:00.533Z,2.03
2022-11-16T13:13:36.240Z,1.88
2022-11-16T13:16:17.930Z,2.92
2022-11-16T13:18:45.305Z,2.10
2022-11-16T13:21:18.041Z,1.55
2022-11-16T13:23:50.653Z,1.75
2022-11-16T13:26:21.930Z,1.70
2022-11-16T13:28:52.146Z,2.72
2022-11-16T13:31:20.719Z,1.83
2022-11-16T13:33:51.462Z,1.83
2022-11-16T13:36:39.237Z,1.52
2022-11-16T13:39:09.005Z,1.55
2022-11-16T13:41:37.693Z,1.73
2022-11-16T13:44:06.726Z,2.25
2022-11-16T13:46:55.173Z,1.33
2022-11-16T13:49:24.438Z,1.70
2022-11-16T13:51:53.246Z,1.58
2022-11-16T13:54:46.029Z,2.55
2022-11-16T13:57:21.839Z,2.47
2022-11-16T13:59:50.062Z,2.28
2022-11-16T14:02:38.440Z,1.83
2022-11-16T14:05:06.527Z,1.50
2022-11-16T14:07:35.171Z,1.95
2022-11-16T14:10:05.512Z,1.50
2022-11-16T14:12:59.397Z,1.80
2022-11-16T14:15:31.080Z,2.53
2022-11-16T14:18:02.811Z,1.83
2022-11-16T14:20:37.868Z,2.03
2022-11-16T14:23:20.099Z,1.45
2022-11-16T14:25:52.780Z,1.55
2022-11-16T14:28:41.590Z,1.83
2022-11-16T14:31:14.380Z,2.35
2022-11-16T14:33:41.774Z,2.22
2022-11-16T14:36:10.215Z,1.35
2022-11-16T14:38:38.629Z,1.83
2022-11-16T14:41:08.011Z,1.08
2022-11-16T14:43:39.550Z,1.60
2022-11-16T14:46:08.500Z,1.75
2022-11-16T14:48:42.710Z,1.50
2022-11-16T14:51:12.159Z,1.55
2022-11-16T14:53:41.760Z,1.33
2022-11-16T14:56:12.008Z,2.10
2022-11-16T14:58:39.864Z,1.60
2022-11-16T15:03:36.368Z,1.65
2022-11-16T15:06:04.503Z,2.05
2022-11-16T15:10:59.427Z,2.90
2022-11-16T15:13:28.201Z,2.22
2022-11-16T15:16:11.997Z,1.95
2022-11-16T15:18:39.334Z,1.60
2022-11-16T15:21:06.999Z,1.60
2022-11-16T15:23:34.602Z,1.60
2022-11-16T15:26:03.425Z,2.67
2022-11-16T15:28:32.791Z,1.92
2022-11-16T15:31:01.460Z,2.10
2022-11-16T15:33:29.694Z,1.98
2022-11-16T15:35:57.144Z,4.05
2022-11-16T15:38:25.639Z,2.78
2022-11-16T15:40:55.465Z,1.92
2022-11-16T15:43:24.139Z,2.00
2022-11-16T15:45:53.114Z,2.45
2022-11-16T15:48:21.641Z,2.20
2022-11-16T15:50:58.946Z,2.20
2022-11-16T15:53:37.788Z,1.98
2022-11-16T15:56:06.968Z,2.00
2022-11-16T15:58:40.214Z,3.60
2022-11-16T16:01:09.793Z,4.72
2022-11-16T16:03:38.037Z,2.85
2022-11-16T16:06:05.735Z,2.92
2022-11-16T16:08:34.097Z,2.90
2022-11-16T16:11:02.909Z,2.60
2022-11-16T16:13:32.420Z,2.58
2022-11-16T16:16:23.661Z,2.50
2022-11-16T16:18:51.308Z,3.15
2022-11-16T16:21:18.790Z,3.47
2022-11-16T16:23:46.538Z,3.63
2022-11-16T16:26:14.151Z,3.60
2022-11-16T16:28:41.515Z,3.13
2022-11-16T16:31:08.997Z,3.15
2022-11-16T16:33:38.071Z,2.75
2022-11-16T16:36:05.785Z,4.35
2022-11-16T16:38:33.394Z,4.25
2022-11-16T16:41:02.354Z,3.28
2022-11-16T16:43:30.112Z,4.03
2022-11-16T16:45:57.840Z,6.68
2022-11-16T16:48:25.151Z,5.80
2022-11-16T16:50:53.845Z,5.43
2022-11-16T16:53:21.232Z,4.90
2022-11-16T16:55:48.915Z,4.35
2022-11-16T16:58:16.279Z,3.53
2022-11-16T17:00:43.814Z,3.75
2022-11-16T17:03:11.307Z,3.30
2022-11-16T17:05:38.825Z,5.00
2022-11-16T17:08:07.708Z,4.53
2022-11-16T17:10:35.067Z,3.70
2022-11-16T17:13:03.723Z,3.72
2022-11-16T17:15:31.073Z,3.70
2022-11-16T17:17:59.627Z,3.30
2022-11-16T17:20:26.977Z,3.70
2022-11-16T17:22:54.323Z,3.03
2022-11-16T17:25:22.992Z,2.67
2022-11-16T17:27:50.324Z,2.90
2022-11-16T17:30:17.663Z,4.35
2022-11-16T17:32:45.013Z,4.03
2022-11-16T17:35:12.370Z,3.83
2022-11-16T17:37:39.697Z,3.83
2022-11-16T17:40:07.599Z,4.22
2022-11-16T17:45:04.872Z,3.55
2022-11-16T17:47:33.220Z,4.45
2022-11-16T17:50:00.604Z,3.95
2022-11-16T17:52:27.978Z,3.92
2022-11-16T17:54:55.319Z,3.40
2022-11-16T17:57:22.709Z,3.28
2022-11-16T17:59:50.061Z,3.05
2022-11-16T18:02:18.724Z,3.90
2022-11-16T18:04:50.856Z,4.38
2022-11-16T18:07:18.757Z,4.63
2022-11-16T18:09:46.136Z,5.00
2022-11-16T18:12:13.474Z,3.80
2022-11-16T18:14:42.395Z,3.67
2022-11-16T18:17:09.956Z,4.32
2022-11-16T18:19:38.664Z,3.78
2022-11-16T18:22:06.035Z,4.10
2022-11-16T18:24:33.421Z,3.85
2022-11-16T18:27:00.752Z,4.32
2022-11-16T18:29:28.549Z,4.75
2022-11-16T18:31:55.883Z,4.82
2022-11-16T18:34:23.249Z,6.00
2022-11-16T18:36:51.923Z,5.65
2022-11-16T18:39:19.208Z,5.43
2022-11-16T18:41:53.267Z,4.90
2022-11-16T18:44:21.757Z,5.45
2022-11-16T18:46:49.072Z,5.15
2022-11-16T18:49:16.461Z,4.68
2022-11-16T18:51:43.859Z,4.55
2022-11-16T18:54:12.783Z,5.80
2022-11-16T18:56:40.113Z,6.20
2022-11-16T18:59:07.481Z,5.25
2022-11-16T19:01:34.854Z,4.70
2022-11-16T19:04:03.082Z,4.60
2022-11-16T19:06:32.324Z,3.90
2022-11-16T19:09:00.038Z,5.03
2022-11-16T19:11:29.240Z,4.38
2022-11-16T19:13:57.487Z,3.72
2022-11-16T19:16:25.190Z,4.13
2022-11-16T19:18:52.882Z,4.55
2022-11-16T19:21:21.668Z,4.22
2022-11-16T19:23:49.820Z,5.05
2022-11-16T19:26:18.231Z,4.35
2022-11-16T19:28:47.544Z,4.22
2022-11-16T19:31:16.213Z,4.90
2022-11-16T19:33:44.254Z,3.97
2022-11-16T19:36:12.383Z,3.95
2022-11-16T19:38:39.994Z,4.15
2022-11-16T19:41:07.972Z,4.22
2022-11-16T19:46:04.975Z,4.05
2022-11-16T19:48:32.878Z,4.38
2022-11-16T19:53:27.781Z,4.45
2022-11-16T19:55:55.559Z,4.55
2022-11-16T19:58:22.881Z,4.88
2022-11-16T20:00:50.337Z,4.88
2022-11-16T20:03:19.047Z,5.28
2022-11-16T20:05:46.388Z,4.32
2022-11-16T20:08:13.758Z,4.72
2022-11-16T20:10:41.129Z,6.60
2022-11-16T20:13:08.444Z,4.22
2022-11-16T20:15:35.777Z,4.30
2022-11-16T20:18:03.157Z,4.65
2022-11-16T20:20:32.848Z,4.80
2022-11-16T20:23:00.179Z,5.15
2022-11-16T20:25:28.964Z,4.05
2022-11-16T20:27:56.298Z,4.97
2022-11-16T20:30:23.629Z,4.53
2022-11-16T20:32:50.963Z,4.75
2022-11-16T20:35:19.294Z,4.30
2022-11-16T20:37:48.078Z,4.18
2022-11-16T20:40:15.633Z,4.07
2022-11-16T20:42:43.000Z,3.97
2022-11-16T20:45:11.069Z,4.90
2022-11-16T20:47:38.399Z,3.83
2022-11-16T20:50:06.299Z,4.32
2022-11-16T20:55:02.942Z,4.45
2022-11-16T20:57:30.331Z,6.80
2022-11-16T20:59:57.698Z,5.78
2022-11-16T21:02:25.020Z,5.47
2022-11-16T21:04:57.458Z,5.60
2022-11-16T21:07:27.375Z,6.20
2022-11-16T21:10:12.255Z,6.00
2022-11-16T21:12:58.660Z,5.88
2022-11-16T21:15:26.005Z,6.18
2022-11-16T21:17:53.335Z,5.30
2022-11-16T21:20:27.501Z,6.05
2022-11-16T21:22:55.689Z,5.68
2022-11-16T21:25:23.090Z,6.25
2022-11-16T21:27:51.787Z,5.65
2022-11-16T21:30:19.301Z,5.63
2022-11-16T21:32:46.647Z,4.70
2022-11-16T21:35:14.087Z,5.18
2022-11-16T21:37:41.435Z,6.55
2022-11-16T21:40:09.490Z,5.85
2022-11-16T21:45:05.758Z,5.30
2022-11-16T21:47:33.074Z,5.15
2022-11-16T21:50:30.077Z,4.20
2022-11-16T21:52:47.709Z,3.80
2022-11-16T21:55:15.133Z,4.30
2022-11-16T21:57:42.465Z,3.97
2022-11-16T22:00:12.288Z,3.50
2022-11-16T22:02:39.635Z,3.83
2022-11-16T22:05:24.828Z,3.47
2022-11-16T22:07:52.162Z,4.45
2022-11-16T22:10:19.639Z,3.83
2022-11-16T22:12:47.035Z,3.70
2022-11-16T22:15:15.698Z,3.85
2022-11-16T22:17:44.332Z,3.72
2022-11-16T22:20:12.092Z,3.58
2022-11-16T22:22:39.804Z,5.18
2022-11-16T22:27:52.133Z,3.17
2022-11-16T22:30:23.262Z,4.90
2022-11-16T22:32:50.576Z,3.00
2022-11-16T22:35:18.059Z,3.42
2022-11-16T22:37:45.384Z,2.95
2022-11-16T22:40:17.606Z,2.38
2022-11-16T22:42:45.314Z,3.03
2022-11-16T22:45:12.687Z,2.78
2022-11-16T22:47:41.369Z,2.15
2022-11-16T22:50:09.069Z,3.08
2022-11-16T22:52:36.420Z,2.30
2022-11-16T22:55:03.822Z,2.47
2022-11-16T22:57:31.154Z,2.33
2022-11-16T22:59:58.486Z,2.97
2022-11-16T23:02:25.868Z,2.55
2022-11-16T23:04:54.585Z,2.05
2022-11-16T23:07:21.992Z,2.72
2022-11-16T23:09:49.381Z,2.70
2022-11-16T23:12:34.461Z,2.40
2022-11-16T23:15:19.244Z,2.88
2022-11-16T23:17:46.644Z,2.28
2022-11-16T23:20:32.799Z,3.15
2022-11-16T23:23:17.905Z,2.40
2022-11-16T23:26:03.057Z,2.15
2022-11-16T23:28:30.393Z,2.65
2022-11-16T23:30:57.694Z,2.65
2022-11-16T23:33:43.709Z,2.17
2022-11-16T23:36:12.863Z,2.50
2022-11-16T23:38:40.242Z,2.17
2022-11-16T23:41:21.625Z,2.05
2022-11-16T23:44:00.783Z,2.47
2022-11-16T23:46:28.512Z,2.35
2022-11-16T23:48:55.868Z,2.10
2022-11-16T23:51:24.659Z,2.78
2022-11-16T23:53:52.509Z,1.85
2022-11-16T23:58:47.125Z,2.08
